createdAt,value
2022-09-23T00:01:19.356Z,101287.59
2022-09-23T00:03:49.274Z,101287.75
2022-09-23T00:06:20.283Z,101290.47
2022-09-23T00:08:49.727Z,101286.81
2022-09-23T00:11:21.880Z,101286.34
2022-09-23T00:13:53.379Z,101284.41
2022-09-23T00:16:25.129Z,101284.00
2022-09-23T00:18:53.769Z,101281.66
2022-09-23T00:21:23.762Z,101284.75
2022-09-23T00:23:52.765Z,101281.78
2022-09-23T00:26:24.469Z,101283.38
2022-09-23T00:28:53.361Z,101283.69
2022-09-23T00:31:24.459Z,101281.00
2022-09-23T00:33:56.900Z,101278.66
2022-09-23T00:36:26.856Z,101274.94
2022-09-23T00:38:56.207Z,101275.03
2022-09-23T00:41:26.625Z,101279.00
2022-09-23T00:43:57.664Z,101273.53
2022-09-23T00:46:30.506Z,101275.56
2022-09-23T00:49:03.538Z,101277.81
2022-09-23T00:51:36.254Z,101274.47
2022-09-23T00:54:06.689Z,101267.50
2022-09-23T00:56:38.542Z,101275.16
2022-09-23T00:59:09.415Z,101269.84
2022-09-23T01:01:39.061Z,101265.56
2022-09-23T01:04:09.092Z,101265.06
2022-09-23T01:06:37.925Z,101261.22
2022-09-23T01:09:06.728Z,101260.19
2022-09-23T01:11:45.444Z,101259.59
2022-09-23T01:14:36.081Z,101261.97
2022-09-23T01:17:11.222Z,101256.81
2022-09-23T01:20:01.097Z,101260.50
2022-09-23T01:22:37.367Z,101253.19
2022-09-23T01:25:29.512Z,101250.19
2022-09-23T01:28:19.332Z,101259.22
2022-09-23T01:30:57.855Z,101257.63
2022-09-23T01:33:36.599Z,101256.63
2022-09-23T01:36:13.707Z,101259.22
2022-09-23T01:38:51.500Z,101259.66
2022-09-23T01:41:37.334Z,101254.09
2022-09-23T01:44:09.841Z,101254.94
2022-09-23T01:46:48.594Z,101262.69
2022-09-23T01:49:21.991Z,101265.06
2022-09-23T01:51:55.553Z,101256.25
2022-09-23T01:54:31.229Z,101259.72
2022-09-23T01:57:04.985Z,101257.81
2022-09-23T01:59:39.109Z,101265.06
2022-09-23T02:02:15.489Z,101258.00
2022-09-23T02:04:49.369Z,101257.53
2022-09-23T02:07:23.824Z,101257.28
2022-09-23T02:09:56.664Z,101246.84
2022-09-23T02:12:29.827Z,101250.06
2022-09-23T02:15:03.593Z,101256.00
2022-09-23T02:17:40.317Z,101258.84
2022-09-23T02:20:09.656Z,101258.84
2022-09-23T02:22:42.403Z,101258.34
2022-09-23T02:25:12.714Z,101256.91
2022-09-23T02:27:48.040Z,101253.06
2022-09-23T02:30:22.498Z,101254.16
2022-09-23T02:33:04.689Z,101250.50
2022-09-23T02:35:38.311Z,101254.72
2022-09-23T02:38:21.920Z,101249.66
2022-09-23T02:40:55.129Z,101248.34
2022-09-23T02:43:35.714Z,101252.94
2022-09-23T02:46:05.942Z,101262.06
2022-09-23T02:48:42.064Z,101255.88
2022-09-23T02:51:11.713Z,101257.47
2022-09-23T02:53:41.093Z,101264.19
2022-09-23T02:56:16.892Z,101263.84
2022-09-23T02:58:47.197Z,101261.00
2022-09-23T03:01:26.527Z,101258.84
2022-09-23T03:04:09.044Z,101258.41
2022-09-23T03:06:48.724Z,101255.00
2022-09-23T03:09:24.045Z,101244.28
2022-09-23T03:12:16.220Z,101247.06
2022-09-23T03:14:51.788Z,101246.31
2022-09-23T03:17:27.299Z,101247.81
2022-09-23T03:20:02.687Z,101243.78
2022-09-23T03:22:35.703Z,101241.16
2022-09-23T03:25:09.242Z,101231.19
2022-09-23T03:27:39.362Z,101227.34
2022-09-23T03:30:09.887Z,101236.25
2022-09-23T03:32:40.924Z,101238.28
2022-09-23T03:35:11.363Z,101238.50
2022-09-23T03:37:46.187Z,101235.28
2022-09-23T03:40:19.528Z,101229.50
2022-09-23T03:42:49.381Z,101235.81
2022-09-23T03:45:23.562Z,101240.31
2022-09-23T03:47:52.481Z,101238.31
2022-09-23T03:50:22.719Z,101237.25
2022-09-23T03:52:51.882Z,101238.94
2022-09-23T03:55:21.696Z,101238.63
2022-09-23T03:57:50.360Z,101229.50
2022-09-23T04:00:19.160Z,101230.13
2022-09-23T04:02:48.446Z,101231.75
2022-09-23T04:05:18.297Z,101222.72
2022-09-23T04:07:48.681Z,101219.09
2022-09-23T04:10:17.460Z,101224.16
2022-09-23T04:12:46.332Z,101224.13
2022-09-23T04:15:15.078Z,101229.50
2022-09-23T04:17:43.850Z,101225.31
2022-09-23T04:20:12.949Z,101218.56
2022-09-23T04:22:41.715Z,101220.91
2022-09-23T04:25:12.203Z,101221.13
2022-09-23T04:27:40.885Z,101218.44
2022-09-23T04:30:10.776Z,101230.56
2022-09-23T04:32:39.585Z,101222.19
2022-09-23T04:35:09.377Z,101224.88
2022-09-23T04:37:38.758Z,101225.09
2022-09-23T04:40:08.964Z,101225.31
2022-09-23T04:42:39.539Z,101227.53
2022-09-23T04:45:09.234Z,101224.16
2022-09-23T04:47:38.134Z,101214.16
2022-09-23T04:50:07.755Z,101215.38
2022-09-23T04:52:36.475Z,101223.06
2022-09-23T04:55:09.208Z,101223.72
2022-09-23T04:57:42.182Z,101226.06
2022-09-23T05:00:12.377Z,101222.00
2022-09-23T05:02:45.579Z,101225.41
2022-09-23T05:05:14.637Z,101231.31
2022-09-23T05:07:43.326Z,101224.78
2022-09-23T05:10:12.182Z,101224.88
2022-09-23T05:12:42.484Z,101228.19
2022-09-23T05:15:15.420Z,101220.13
2022-09-23T05:17:44.295Z,101219.16
2022-09-23T05:20:13.802Z,101219.34
2022-09-23T05:22:42.659Z,101227.63
2022-09-23T05:25:11.436Z,101228.16
2022-09-23T05:27:42.439Z,101224.31
2022-09-23T05:30:11.821Z,101230.72
2022-09-23T05:32:40.563Z,101227.53
2022-09-23T05:35:13.319Z,101226.75
2022-09-23T05:37:42.159Z,101217.81
2022-09-23T05:40:11.439Z,101224.53
2022-09-23T05:42:41.883Z,101225.78
2022-09-23T05:45:11.279Z,101220.97
2022-09-23T05:47:40.029Z,101230.84
2022-09-23T05:50:09.599Z,101231.53
2022-09-23T05:52:38.344Z,101228.78
2022-09-23T05:55:08.247Z,101233.84
2022-09-23T05:57:37.067Z,101222.81
2022-09-23T06:00:08.700Z,101232.34
2022-09-23T06:02:40.627Z,101233.75
2022-09-23T06:05:09.824Z,101236.53
2022-09-23T06:07:39.156Z,101232.66
2022-09-23T06:10:08.876Z,101233.53
2022-09-23T06:12:37.623Z,101233.09
2022-09-23T06:15:09.220Z,101231.88
2022-09-23T06:17:37.998Z,101235.53
2022-09-23T06:20:07.246Z,101242.94
2022-09-23T06:22:39.087Z,101235.63
2022-09-23T06:25:09.545Z,101242.47
2022-09-23T06:27:38.260Z,101238.38
2022-09-23T06:30:09.818Z,101240.66
2022-09-23T06:32:38.641Z,101238.31
2022-09-23T06:35:18.929Z,101233.63
2022-09-23T06:37:54.018Z,101250.09
2022-09-23T06:40:23.687Z,101248.78
2022-09-23T06:42:59.439Z,101252.22
2022-09-23T06:45:30.281Z,101257.53
2022-09-23T06:47:59.919Z,101252.75
2022-09-23T06:50:29.296Z,101257.59
2022-09-23T06:52:58.640Z,101250.31
2022-09-23T06:55:28.147Z,101254.34
2022-09-23T06:57:59.603Z,101249.84
2022-09-23T07:00:30.886Z,101248.22
2022-09-23T07:02:59.733Z,101248.00
2022-09-23T07:05:28.416Z,101246.94
2022-09-23T07:07:57.216Z,101244.94
2022-09-23T07:10:27.936Z,101244.34
2022-09-23T07:12:57.576Z,101239.97
2022-09-23T07:15:26.203Z,101252.22
2022-09-23T07:17:58.039Z,101245.59
2022-09-23T07:20:27.616Z,101247.34
2022-09-23T07:22:57.516Z,101251.91
2022-09-23T07:25:26.156Z,101258.97
2022-09-23T07:27:57.926Z,101259.56
2022-09-23T07:30:26.968Z,101255.44
2022-09-23T07:32:58.617Z,101262.78
2022-09-23T07:35:28.596Z,101271.47
2022-09-23T07:37:57.298Z,101263.91
2022-09-23T07:40:26.199Z,101264.38
2022-09-23T07:42:55.710Z,101258.41
2022-09-23T07:45:25.623Z,101265.50
2022-09-23T07:47:55.360Z,101257.69
2022-09-23T07:50:25.436Z,101259.13
2022-09-23T07:52:54.061Z,101254.59
2022-09-23T07:55:23.894Z,101255.47
2022-09-23T07:57:53.810Z,101248.94
2022-09-23T08:00:23.293Z,101247.06
2022-09-23T08:02:53.181Z,101251.19
2022-09-23T08:05:22.903Z,101247.53
2022-09-23T08:07:54.316Z,101246.31
2022-09-23T08:10:23.445Z,101248.28
2022-09-23T08:12:53.175Z,101238.44
2022-09-23T08:15:21.998Z,101243.88
2022-09-23T08:17:51.185Z,101237.97
2022-09-23T08:20:36.918Z,101241.50
2022-09-23T08:23:07.463Z,101237.53
2022-09-23T08:25:36.065Z,101246.53
2022-09-23T08:28:04.675Z,101240.59
2022-09-23T08:30:33.301Z,101247.50
2022-09-23T08:33:03.822Z,101237.13
2022-09-23T08:35:32.921Z,101237.97
2022-09-23T08:38:03.081Z,101234.63
2022-09-23T08:40:35.887Z,101247.16
2022-09-23T08:43:07.124Z,101247.06
2022-09-23T08:45:37.464Z,101244.44
2022-09-23T08:48:13.868Z,101235.41
2022-09-23T08:50:45.539Z,101239.88
2022-09-23T08:53:22.106Z,101235.69
2022-09-23T08:55:54.840Z,101240.63
2022-09-23T08:58:35.891Z,101228.09
2022-09-23T09:01:09.631Z,101234.56
2022-09-23T09:03:46.565Z,101243.06
2022-09-23T09:06:20.078Z,101242.31
2022-09-23T09:08:57.682Z,101234.50
2022-09-23T09:11:35.387Z,101232.13
2022-09-23T09:14:18.876Z,101230.13
2022-09-23T09:17:00.696Z,101226.97
2022-09-23T09:19:54.097Z,101226.31
2022-09-23T09:22:27.939Z,101217.66
2022-09-23T09:25:03.480Z,101225.94
2022-09-23T09:27:33.940Z,101220.63
2022-09-23T09:30:02.720Z,101215.91
2022-09-23T09:32:47.577Z,101213.66
2022-09-23T09:35:26.920Z,101211.78
2022-09-23T09:37:56.180Z,101215.25
2022-09-23T09:40:25.829Z,101205.91
2022-09-23T09:42:55.980Z,101212.81
2022-09-23T09:45:38.681Z,101203.66
2022-09-23T09:48:13.847Z,101204.25
2022-09-23T09:50:45.619Z,101205.41
2022-09-23T09:53:22.625Z,101198.59
2022-09-23T09:56:04.976Z,101200.06
2022-09-23T09:58:47.404Z,101200.56
2022-09-23T10:01:21.700Z,101209.72
2022-09-23T10:03:56.930Z,101206.31
2022-09-23T10:06:29.716Z,101204.59
2022-09-23T10:09:14.582Z,101201.03
2022-09-23T10:11:43.598Z,101201.75
2022-09-23T10:14:17.743Z,101198.31
2022-09-23T10:16:57.499Z,101199.03
2022-09-23T10:19:30.044Z,101191.81
2022-09-23T10:22:01.448Z,101193.94
2022-09-23T10:24:34.616Z,101187.97
2022-09-23T10:27:08.940Z,101185.13
2022-09-23T10:29:43.496Z,101189.09
2022-09-23T10:32:27.221Z,101187.97
2022-09-23T10:34:59.400Z,101185.69
2022-09-23T10:37:39.142Z,101179.31
2022-09-23T10:40:35.486Z,101178.59
2022-09-23T10:43:46.368Z,101178.16
2022-09-23T10:46:38.701Z,101180.28
2022-09-23T10:49:52.808Z,101177.03
2022-09-23T10:52:38.227Z,101180.13
2022-09-23T10:55:19.991Z,101170.47
2022-09-23T10:58:12.033Z,101173.63
2022-09-23T11:00:48.455Z,101176.31
2022-09-23T11:04:16.642Z,101166.78
2022-09-23T11:07:02.116Z,101161.81
2022-09-23T11:09:41.094Z,101167.78
2022-09-23T11:12:23.162Z,101163.94
2022-09-23T11:15:04.979Z,101159.69
2022-09-23T11:18:10.640Z,101166.22
2022-09-23T11:20:49.401Z,101168.06
2022-09-23T11:23:57.041Z,101162.81
2022-09-23T11:26:41.586Z,101155.13
2022-09-23T11:29:36.660Z,101159.09
2022-09-23T11:32:27.822Z,101159.97
2022-09-23T11:35:04.386Z,101161.97
2022-09-23T11:37:42.185Z,101155.69
2022-09-23T11:40:19.278Z,101164.91
2022-09-23T11:42:55.466Z,101163.34
2022-09-23T11:45:29.628Z,101164.06
2022-09-23T11:48:03.765Z,101150.31
2022-09-23T11:50:37.865Z,101155.69
2022-09-23T11:53:13.625Z,101152.53
2022-09-23T11:55:57.185Z,101153.94
2022-09-23T11:58:31.080Z,101151.19
2022-09-23T12:01:07.330Z,101149.94
2022-09-23T12:03:45.811Z,101151.13
2022-09-23T12:06:19.127Z,101143.88
2022-09-23T12:08:54.408Z,101155.81
2022-09-23T12:11:29.950Z,101150.84
2022-09-23T12:14:11.358Z,101143.28
2022-09-23T12:16:54.325Z,101132.88
2022-09-23T12:19:43.758Z,101133.16
2022-09-23T12:22:33.054Z,101148.03
2022-09-23T12:25:19.375Z,101143.47
2022-09-23T12:27:51.359Z,101143.47
2022-09-23T12:30:22.013Z,101139.94
2022-09-23T12:32:50.976Z,101149.28
2022-09-23T12:35:23.816Z,101139.22
2022-09-23T12:37:54.261Z,101137.34
2022-09-23T12:40:30.480Z,101136.94
2022-09-23T12:43:01.382Z,101141.91
2022-09-23T12:45:39.523Z,101127.84
2022-09-23T12:48:43.718Z,101129.25
2022-09-23T12:51:20.467Z,101127.56
2022-09-23T12:54:26.029Z,101128.41
2022-09-23T12:57:11.727Z,101130.97
2022-09-23T13:00:00.996Z,101125.84
2022-09-23T13:02:34.184Z,101127.28
2022-09-23T13:05:39.220Z,101121.88
2022-09-23T13:08:13.907Z,101121.72
2022-09-23T13:10:50.053Z,101124.00
2022-09-23T13:13:31.903Z,101119.59
2022-09-23T13:16:14.777Z,101117.19
2022-09-23T13:18:54.729Z,101124.00
2022-09-23T13:22:03.030Z,101119.88
2022-09-23T13:24:42.249Z,101112.78
2022-09-23T13:27:26.792Z,101118.88
2022-09-23T13:30:02.311Z,101113.50
2022-09-23T13:32:34.368Z,101116.16
2022-09-23T13:35:06.684Z,101109.06
2022-09-23T13:37:45.213Z,101109.63
2022-09-23T13:40:24.068Z,101121.56
2022-09-23T13:42:58.689Z,101117.88
2022-09-23T13:45:31.240Z,101115.31
2022-09-23T13:48:04.563Z,101109.22
2022-09-23T13:50:35.193Z,101114.06
2022-09-23T13:53:10.038Z,101109.38
2022-09-23T13:55:41.226Z,101105.66
2022-09-23T13:58:18.833Z,101107.22
2022-09-23T14:00:50.927Z,101100.69
2022-09-23T14:03:26.131Z,101105.38
2022-09-23T14:05:56.845Z,101101.94
2022-09-23T14:08:26.231Z,101110.75
2022-09-23T14:10:55.835Z,101100.97
2022-09-23T14:13:27.530Z,101102.09
2022-09-23T14:16:00.231Z,101095.38
2022-09-23T14:18:38.118Z,101104.19
2022-09-23T14:21:07.740Z,101099.25
2022-09-23T14:23:36.722Z,101096.53
2022-09-23T14:26:06.538Z,101094.00
2022-09-23T14:28:35.781Z,101101.09
2022-09-23T14:31:06.739Z,101094.72
2022-09-23T14:33:40.832Z,101095.69
2022-09-23T14:36:31.710Z,101097.72
2022-09-23T14:39:03.152Z,101093.88
2022-09-23T14:41:38.834Z,101098.44
2022-09-23T14:44:09.351Z,101090.47
2022-09-23T14:46:40.369Z,101091.72
2022-09-23T14:49:17.774Z,101084.22
2022-09-23T14:51:50.619Z,101080.22
2022-09-23T14:54:38.937Z,101081.66
2022-09-23T14:57:27.335Z,101082.66
2022-09-23T15:00:00.068Z,101081.66
2022-09-23T15:02:35.954Z,101077.09
2022-09-23T15:05:22.338Z,101080.09
2022-09-23T15:07:52.960Z,101082.19
2022-09-23T15:10:24.887Z,101082.06
2022-09-23T15:12:55.108Z,101080.50
2022-09-23T15:15:29.448Z,101088.59
2022-09-23T15:18:06.004Z,101089.19
2022-09-23T15:20:35.705Z,101078.75
2022-09-23T15:23:04.365Z,101087.69
2022-09-23T15:25:35.663Z,101080.75
2022-09-23T15:28:19.139Z,101081.03
2022-09-23T15:30:47.842Z,101087.63
2022-09-23T15:33:18.175Z,101078.47
2022-09-23T15:35:49.721Z,101072.31
2022-09-23T15:38:18.974Z,101079.19
2022-09-23T15:40:47.893Z,101076.25
2022-09-23T15:43:21.698Z,101075.00
2022-09-23T15:45:53.442Z,101075.28
2022-09-23T15:48:26.734Z,101067.88
2022-09-23T15:50:56.212Z,101083.13
2022-09-23T15:53:26.586Z,101075.16
2022-09-23T15:55:55.857Z,101087.22
2022-09-23T15:58:26.256Z,101079.97
2022-09-23T16:00:57.265Z,101083.75
2022-09-23T16:03:29.786Z,101071.53
2022-09-23T16:06:02.546Z,101076.47
2022-09-23T16:08:33.266Z,101072.72
2022-09-23T16:11:02.342Z,101070.09
2022-09-23T16:13:30.996Z,101067.34
2022-09-23T16:16:00.333Z,101067.78
2022-09-23T16:18:30.715Z,101063.53
2022-09-23T16:21:00.146Z,101067.03
2022-09-23T16:23:37.272Z,101072.38
2022-09-23T16:26:09.206Z,101075.63
2022-09-23T16:28:39.107Z,101069.13
2022-09-23T16:31:08.192Z,101073.50
2022-09-23T16:33:38.394Z,101067.28
2022-09-23T16:36:10.865Z,101076.06
2022-09-23T16:38:40.936Z,101076.56
2022-09-23T16:41:09.984Z,101065.81
2022-09-23T16:43:41.076Z,101072.19
2022-09-23T16:46:09.483Z,101072.53
2022-09-23T16:48:40.776Z,101072.53
2022-09-23T16:51:10.290Z,101075.00
2022-09-23T16:53:39.426Z,101079.97
2022-09-23T16:56:09.855Z,101080.97
2022-09-23T16:58:39.344Z,101080.97
2022-09-23T17:01:26.561Z,101070.97
2022-09-23T17:03:56.784Z,101074.28
2022-09-23T17:06:28.088Z,101070.97
2022-09-23T17:08:57.125Z,101068.28
2022-09-23T17:11:25.753Z,101069.25
2022-09-23T17:13:54.473Z,101068.63
2022-09-23T17:16:28.546Z,101069.00
2022-09-23T17:18:59.614Z,101067.66
2022-09-23T17:21:28.835Z,101070.97
2022-09-23T17:23:58.498Z,101064.84
2022-09-23T17:26:28.868Z,101073.66
2022-09-23T17:28:58.921Z,101071.94
2022-09-23T17:31:27.892Z,101063.09
2022-09-23T17:33:58.075Z,101063.69
2022-09-23T17:36:27.515Z,101065.78
2022-09-23T17:38:56.328Z,101073.38
2022-09-23T17:41:24.929Z,101071.03
2022-09-23T17:44:00.710Z,101074.13
2022-09-23T17:46:30.369Z,101074.53
2022-09-23T17:49:00.513Z,101073.78
2022-09-23T17:51:29.341Z,101073.97
2022-09-23T17:53:57.909Z,101076.22
2022-09-23T17:56:30.094Z,101072.28
2022-09-23T17:59:01.846Z,101080.47
2022-09-23T18:01:31.168Z,101071.44
2022-09-23T18:04:05.802Z,101078.19
2022-09-23T18:06:36.865Z,101077.81
2022-09-23T18:09:07.128Z,101084.16
2022-09-23T18:11:38.550Z,101078.66
2022-09-23T18:14:09.613Z,101077.66
2022-09-23T18:16:39.831Z,101074.75
2022-09-23T18:19:14.292Z,101078.00
2022-09-23T18:21:45.389Z,101081.22
2022-09-23T18:24:31.966Z,101078.72
2022-09-23T18:27:02.201Z,101066.66
2022-09-23T18:29:31.849Z,101075.78
2022-09-23T18:32:01.811Z,101071.38
2022-09-23T18:34:32.067Z,101071.25
2022-09-23T18:37:01.286Z,101069.09
2022-09-23T18:39:30.227Z,101069.56
2022-09-23T18:41:59.009Z,101072.81
2022-09-23T18:44:27.628Z,101078.38
2022-09-23T18:46:56.609Z,101073.25
2022-09-23T18:49:42.574Z,101071.22
2022-09-23T18:52:12.675Z,101061.53
2022-09-23T18:54:41.165Z,101069.47
2022-09-23T18:57:09.689Z,101066.25
2022-09-23T18:59:38.234Z,101067.66
2022-09-23T19:02:06.746Z,101062.81
2022-09-23T19:04:35.468Z,101067.53
2022-09-23T19:07:04.267Z,101062.81
2022-09-23T19:09:35.126Z,101063.44
2022-09-23T19:12:04.109Z,101064.81
2022-09-23T19:14:33.366Z,101062.25
2022-09-23T19:17:05.408Z,101068.31
2022-09-23T19:19:34.069Z,101069.63
2022-09-23T19:22:02.948Z,101068.97
2022-09-23T19:24:31.666Z,101074.97
2022-09-23T19:27:03.361Z,101073.31
2022-09-23T19:29:32.106Z,101069.72
2022-09-23T19:32:02.345Z,101076.66
2022-09-23T19:34:31.388Z,101074.00
2022-09-23T19:37:00.521Z,101071.56
2022-09-23T19:39:31.916Z,101076.25
2022-09-23T19:42:02.033Z,101074.28
2022-09-23T19:44:33.268Z,101068.06
2022-09-23T19:47:01.957Z,101079.22
2022-09-23T19:49:31.428Z,101077.38
2022-09-23T19:52:00.888Z,101077.66
2022-09-23T19:54:29.667Z,101079.91
2022-09-23T19:56:58.476Z,101074.13
2022-09-23T19:59:28.405Z,101071.50
2022-09-23T20:01:59.540Z,101080.50
2022-09-23T20:04:28.526Z,101074.25
2022-09-23T20:06:57.265Z,101065.88
2022-09-23T20:09:28.025Z,101072.38
2022-09-23T20:11:57.446Z,101068.63
2022-09-23T20:14:27.547Z,101079.34
2022-09-23T20:16:56.494Z,101066.22
2022-09-23T20:19:26.734Z,101074.72
2022-09-23T20:22:09.200Z,101079.00
2022-09-23T20:24:37.867Z,101071.84
2022-09-23T20:27:11.358Z,101076.91
2022-09-23T20:29:40.071Z,101067.34
2022-09-23T20:32:10.020Z,101068.09
2022-09-23T20:34:43.022Z,101067.25
2022-09-23T20:37:12.260Z,101067.59
2022-09-23T20:39:40.942Z,101069.03
2022-09-23T20:42:09.742Z,101067.16
2022-09-23T20:44:38.502Z,101066.53
2022-09-23T20:47:07.317Z,101073.50
2022-09-23T20:49:36.639Z,101070.25
2022-09-23T20:52:06.719Z,101064.41
2022-09-23T20:54:39.009Z,101065.09
2022-09-23T20:57:08.761Z,101066.41
2022-09-23T20:59:37.942Z,101057.41
2022-09-23T21:02:08.160Z,101062.28
2022-09-23T21:04:36.901Z,101060.38
2022-09-23T21:07:07.444Z,101063.63
2022-09-23T21:09:36.199Z,101065.72
2022-09-23T21:12:05.080Z,101060.78
2022-09-23T21:14:33.854Z,101063.16
2022-09-23T21:17:03.200Z,101066.41
2022-09-23T21:19:32.024Z,101070.63
2022-09-23T21:22:00.701Z,101067.53
2022-09-23T21:25:25.692Z,101066.78
2022-09-23T21:27:19.685Z,101064.41
2022-09-23T21:29:48.299Z,101061.63
2022-09-23T21:32:17.018Z,101062.06
2022-09-23T21:34:45.961Z,101062.72
2022-09-23T21:37:14.780Z,101060.25
2022-09-23T21:40:05.356Z,101056.44
2022-09-23T21:42:34.302Z,101054.06
2022-09-23T21:45:02.925Z,101050.34
2022-09-23T21:47:32.673Z,101052.44
2022-09-23T21:50:01.587Z,101046.13
2022-09-23T21:52:30.341Z,101045.84
2022-09-23T21:55:00.387Z,101045.97
2022-09-23T21:57:31.555Z,101037.91
2022-09-23T21:59:59.984Z,101037.72
2022-09-23T22:02:28.962Z,101035.38
2022-09-23T22:04:57.663Z,101044.34
2022-09-23T22:07:26.843Z,101036.91
2022-09-23T22:09:55.407Z,101041.03
2022-09-23T22:12:25.650Z,101041.47
2022-09-23T22:14:54.264Z,101037.59
2022-09-23T22:17:23.261Z,101042.84
2022-09-23T22:19:51.781Z,101045.47
2022-09-23T22:22:20.365Z,101049.78
2022-09-23T22:24:49.864Z,101040.63
2022-09-23T22:27:20.709Z,101046.06
2022-09-23T22:30:08.356Z,101038.53
2022-09-23T22:32:43.662Z,101037.88
2022-09-23T22:35:13.927Z,101040.50
2022-09-23T22:37:42.512Z,101046.25
2022-09-23T22:40:14.414Z,101041.31
2022-09-23T22:42:44.131Z,101033.91
2022-09-23T22:45:15.075Z,101033.38
2022-09-23T22:47:45.739Z,101042.44
2022-09-23T22:50:15.410Z,101039.28
2022-09-23T22:52:44.365Z,101038.66
2022-09-23T22:55:13.648Z,101042.53
2022-09-23T22:57:42.357Z,101041.84
2022-09-23T23:00:12.836Z,101041.13
2022-09-23T23:02:42.880Z,101034.75
2022-09-23T23:05:11.954Z,101031.78
2022-09-23T23:07:40.753Z,101038.25
2022-09-23T23:10:10.467Z,101036.75
2022-09-23T23:12:40.267Z,101033.47
2022-09-23T23:15:10.797Z,101028.91
2022-09-23T23:17:40.678Z,101036.31
2022-09-23T23:20:11.538Z,101034.53
2022-09-23T23:22:40.236Z,101039.56
2022-09-23T23:25:09.895Z,101047.81
2022-09-23T23:27:38.735Z,101046.75
2022-09-23T23:30:08.534Z,101045.75
2022-09-23T23:32:37.177Z,101046.97
2022-09-23T23:35:06.470Z,101045.00
2022-09-23T23:37:36.503Z,101035.13
2022-09-23T23:40:05.417Z,101035.00
2022-09-23T23:42:34.867Z,101046.84
2022-09-23T23:45:03.498Z,101043.56
2022-09-23T23:47:32.089Z,101030.34
2022-09-23T23:50:00.750Z,101036.63
2022-09-23T23:52:29.373Z,101041.34
2022-09-23T23:54:59.543Z,101033.69
2022-09-23T23:57:29.625Z,101031.38
2022-09-23T23:59:58.498Z,101029.13
